sensor_id;sensor_type;location;lat;lon;timestamp;temperature;humidity
68257;DHT22;55069;51.568;4.656;2022-07-10T00:00:15;14.56;70.90
68257;DHT22;55069;51.568;4.656;2022-07-10T00:02:44;14.53;71.61
68257;DHT22;55069;51.568;4.656;2022-07-10T00:05:10;14.53;71.32
68257;DHT22;55069;51.568;4.656;2022-07-10T00:07:36;14.47;71.82
68257;DHT22;55069;51.568;4.656;2022-07-10T00:10:03;14.46;71.35
68257;DHT22;55069;51.568;4.656;2022-07-10T00:12:29;14.43;71.06
68257;DHT22;55069;51.568;4.656;2022-07-10T00:14:55;14.42;71.50
68257;DHT22;55069;51.568;4.656;2022-07-10T00:17:20;14.49;71.42
68257;DHT22;55069;51.568;4.656;2022-07-10T00:19:46;14.40;71.73
68257;DHT22;55069;51.568;4.656;2022-07-10T00:22:12;14.34;72.51
68257;DHT22;55069;51.568;4.656;2022-07-10T00:24:37;14.37;71.45
68257;DHT22;55069;51.568;4.656;2022-07-10T00:27:03;14.32;72.27
68257;DHT22;55069;51.568;4.656;2022-07-10T00:29:29;14.29;71.78
68257;DHT22;55069;51.568;4.656;2022-07-10T00:31:54;14.25;71.98
68257;DHT22;55069;51.568;4.656;2022-07-10T00:34:20;14.26;71.91
68257;DHT22;55069;51.568;4.656;2022-07-10T00:36:45;14.28;71.93
68257;DHT22;55069;51.568;4.656;2022-07-10T00:39:11;14.26;71.99
68257;DHT22;55069;51.568;4.656;2022-07-10T00:41:36;14.29;71.82
68257;DHT22;55069;51.568;4.656;2022-07-10T00:44:02;14.32;71.37
68257;DHT22;55069;51.568;4.656;2022-07-10T00:46:30;14.23;72.71
68257;DHT22;55069;51.568;4.656;2022-07-10T00:48:56;14.04;73.78
68257;DHT22;55069;51.568;4.656;2022-07-10T00:51:27;13.94;73.49
68257;DHT22;55069;51.568;4.656;2022-07-10T00:53:53;13.94;73.11
68257;DHT22;55069;51.568;4.656;2022-07-10T00:56:22;14.00;72.95
68257;DHT22;55069;51.568;4.656;2022-07-10T00:58:48;14.05;72.64
68257;DHT22;55069;51.568;4.656;2022-07-10T01:01:15;14.02;72.58
68257;DHT22;55069;51.568;4.656;2022-07-10T01:03:41;14.02;73.23
68257;DHT22;55069;51.568;4.656;2022-07-10T01:06:06;14.04;73.03
68257;DHT22;55069;51.568;4.656;2022-07-10T01:08:32;13.95;73.89
68257;DHT22;55069;51.568;4.656;2022-07-10T01:10:58;13.89;73.91
68257;DHT22;55069;51.568;4.656;2022-07-10T01:13:24;13.91;73.09
68257;DHT22;55069;51.568;4.656;2022-07-10T01:15:50;13.89;73.13
68257;DHT22;55069;51.568;4.656;2022-07-10T01:18:16;13.87;73.36
68257;DHT22;55069;51.568;4.656;2022-07-10T01:20:42;13.87;73.13
68257;DHT22;55069;51.568;4.656;2022-07-10T01:23:07;13.85;73.78
68257;DHT22;55069;51.568;4.656;2022-07-10T01:25:33;13.75;74.63
68257;DHT22;55069;51.568;4.656;2022-07-10T01:27:58;13.77;74.38
68257;DHT22;55069;51.568;4.656;2022-07-10T01:30:25;13.75;73.79
68257;DHT22;55069;51.568;4.656;2022-07-10T01:32:50;13.74;73.76
68257;DHT22;55069;51.568;4.656;2022-07-10T01:35:17;13.74;73.27
68257;DHT22;55069;51.568;4.656;2022-07-10T01:37:43;13.67;74.98
68257;DHT22;55069;51.568;4.656;2022-07-10T01:40:09;13.60;74.97
68257;DHT22;55069;51.568;4.656;2022-07-10T01:42:34;13.53;76.53
68257;DHT22;55069;51.568;4.656;2022-07-10T01:45:00;13.48;76.67
68257;DHT22;55069;51.568;4.656;2022-07-10T01:47:25;13.44;76.63
68257;DHT22;55069;51.568;4.656;2022-07-10T01:49:53;13.46;75.06
68257;DHT22;55069;51.568;4.656;2022-07-10T01:52:19;13.53;74.59
68257;DHT22;55069;51.568;4.656;2022-07-10T01:54:46;13.54;76.03
68257;DHT22;55069;51.568;4.656;2022-07-10T01:57:11;13.47;76.08
68257;DHT22;55069;51.568;4.656;2022-07-10T01:59:37;13.44;75.87
68257;DHT22;55069;51.568;4.656;2022-07-10T02:02:03;13.43;75.44
68257;DHT22;55069;51.568;4.656;2022-07-10T02:04:28;13.39;75.64
68257;DHT22;55069;51.568;4.656;2022-07-10T02:07:07;13.40;75.55
68257;DHT22;55069;51.568;4.656;2022-07-10T02:09:32;13.39;75.53
68257;DHT22;55069;51.568;4.656;2022-07-10T02:11:58;13.39;76.53
68257;DHT22;55069;51.568;4.656;2022-07-10T02:14:23;13.35;75.55
68257;DHT22;55069;51.568;4.656;2022-07-10T02:16:48;13.30;75.64
68257;DHT22;55069;51.568;4.656;2022-07-10T02:19:14;13.33;76.57
68257;DHT22;55069;51.568;4.656;2022-07-10T02:21:39;13.36;75.95
68257;DHT22;55069;51.568;4.656;2022-07-10T02:24:05;13.29;76.62
68257;DHT22;55069;51.568;4.656;2022-07-10T02:26:31;13.30;76.33
68257;DHT22;55069;51.568;4.656;2022-07-10T02:28:56;13.30;76.66
68257;DHT22;55069;51.568;4.656;2022-07-10T02:31:22;13.33;76.45
68257;DHT22;55069;51.568;4.656;2022-07-10T02:33:47;13.30;75.99
68257;DHT22;55069;51.568;4.656;2022-07-10T02:36:13;13.32;77.06
68257;DHT22;55069;51.568;4.656;2022-07-10T02:38:38;13.27;75.86
68257;DHT22;55069;51.568;4.656;2022-07-10T02:41:04;13.23;75.82
68257;DHT22;55069;51.568;4.656;2022-07-10T02:43:29;13.20;77.18
68257;DHT22;55069;51.568;4.656;2022-07-10T02:45:55;13.23;76.01
68257;DHT22;55069;51.568;4.656;2022-07-10T02:48:21;13.20;76.05
68257;DHT22;55069;51.568;4.656;2022-07-10T02:50:46;13.18;77.42
68257;DHT22;55069;51.568;4.656;2022-07-10T02:53:12;13.12;77.63
68257;DHT22;55069;51.568;4.656;2022-07-10T02:55:37;13.09;76.89
68257;DHT22;55069;51.568;4.656;2022-07-10T02:58:03;13.03;78.72
68257;DHT22;55069;51.568;4.656;2022-07-10T03:00:29;13.00;77.80
68257;DHT22;55069;51.568;4.656;2022-07-10T03:02:55;13.05;77.36
68257;DHT22;55069;51.568;4.656;2022-07-10T03:05:21;13.10;77.99
68257;DHT22;55069;51.568;4.656;2022-07-10T03:07:47;13.05;77.27
68257;DHT22;55069;51.568;4.656;2022-07-10T03:10:12;13.05;76.51
68257;DHT22;55069;51.568;4.656;2022-07-10T03:12:38;13.08;76.09
68257;DHT22;55069;51.568;4.656;2022-07-10T03:15:05;13.09;75.78
68257;DHT22;55069;51.568;4.656;2022-07-10T03:17:31;13.13;76.04
68257;DHT22;55069;51.568;4.656;2022-07-10T03:19:56;13.10;75.96
68257;DHT22;55069;51.568;4.656;2022-07-10T03:22:22;13.12;75.70
68257;DHT22;55069;51.568;4.656;2022-07-10T03:24:47;13.13;75.98
68257;DHT22;55069;51.568;4.656;2022-07-10T03:27:13;13.05;77.52
68257;DHT22;55069;51.568;4.656;2022-07-10T03:29:39;13.03;77.05
68257;DHT22;55069;51.568;4.656;2022-07-10T03:32:06;12.99;78.22
68257;DHT22;55069;51.568;4.656;2022-07-10T03:34:32;13.02;76.85
68257;DHT22;55069;51.568;4.656;2022-07-10T03:36:59;13.02;77.52
68257;DHT22;55069;51.568;4.656;2022-07-10T03:39:28;13.05;77.31
68257;DHT22;55069;51.568;4.656;2022-07-10T03:41:53;13.10;77.29
68257;DHT22;55069;51.568;4.656;2022-07-10T03:44:19;13.19;77.09
68257;DHT22;55069;51.568;4.656;2022-07-10T03:46:44;13.29;76.15
68257;DHT22;55069;51.568;4.656;2022-07-10T03:49:10;13.35;77.38
68257;DHT22;55069;51.568;4.656;2022-07-10T03:51:35;13.44;77.07
68257;DHT22;55069;51.568;4.656;2022-07-10T03:54:01;13.46;78.23
68257;DHT22;55069;51.568;4.656;2022-07-10T03:56:26;13.50;78.17
68257;DHT22;55069;51.568;4.656;2022-07-10T03:59:10;13.51;78.32
68257;DHT22;55069;51.568;4.656;2022-07-10T04:01:36;13.56;77.92
68257;DHT22;55069;51.568;4.656;2022-07-10T04:04:01;13.61;77.94
68257;DHT22;55069;51.568;4.656;2022-07-10T04:06:28;13.64;77.66
68257;DHT22;55069;51.568;4.656;2022-07-10T04:08:54;13.74;77.47
68257;DHT22;55069;51.568;4.656;2022-07-10T04:11:19;13.85;76.37
68257;DHT22;55069;51.568;4.656;2022-07-10T04:13:44;13.94;75.68
68257;DHT22;55069;51.568;4.656;2022-07-10T04:16:10;13.98;75.49
68257;DHT22;55069;51.568;4.656;2022-07-10T04:18:41;14.01;76.78
68257;DHT22;55069;51.568;4.656;2022-07-10T04:21:07;13.95;77.09
68257;DHT22;55069;51.568;4.656;2022-07-10T04:23:33;14.01;76.78
68257;DHT22;55069;51.568;4.656;2022-07-10T04:25:59;14.09;76.34
68257;DHT22;55069;51.568;4.656;2022-07-10T04:28:25;14.09;76.33
68257;DHT22;55069;51.568;4.656;2022-07-10T04:30:51;14.12;76.26
68257;DHT22;55069;51.568;4.656;2022-07-10T04:33:16;14.15;76.56
68257;DHT22;55069;51.568;4.656;2022-07-10T04:35:42;14.14;76.56
68257;DHT22;55069;51.568;4.656;2022-07-10T04:38:08;14.25;76.60
68257;DHT22;55069;51.568;4.656;2022-07-10T04:40:33;14.28;76.12
68257;DHT22;55069;51.568;4.656;2022-07-10T04:42:59;14.36;76.01
68257;DHT22;55069;51.568;4.656;2022-07-10T04:45:24;14.42;76.19
68257;DHT22;55069;51.568;4.656;2022-07-10T04:47:50;14.47;75.43
68257;DHT22;55069;51.568;4.656;2022-07-10T04:50:15;14.50;75.14
68257;DHT22;55069;51.568;4.656;2022-07-10T04:52:41;14.56;75.11
68257;DHT22;55069;51.568;4.656;2022-07-10T04:55:07;14.61;75.04
68257;DHT22;55069;51.568;4.656;2022-07-10T04:57:32;14.59;75.44
68257;DHT22;55069;51.568;4.656;2022-07-10T04:59:58;14.60;75.52
68257;DHT22;55069;51.568;4.656;2022-07-10T05:02:23;14.60;75.59
68257;DHT22;55069;51.568;4.656;2022-07-10T05:04:49;14.66;75.59
68257;DHT22;55069;51.568;4.656;2022-07-10T05:07:14;14.76;75.31
68257;DHT22;55069;51.568;4.656;2022-07-10T05:09:40;14.84;74.98
68257;DHT22;55069;51.568;4.656;2022-07-10T05:12:06;14.94;74.74
68257;DHT22;55069;51.568;4.656;2022-07-10T05:14:32;15.01;74.63
68257;DHT22;55069;51.568;4.656;2022-07-10T05:16:57;15.02;74.37
68257;DHT22;55069;51.568;4.656;2022-07-10T05:19:23;15.09;74.42
68257;DHT22;55069;51.568;4.656;2022-07-10T05:21:48;15.15;74.67
68257;DHT22;55069;51.568;4.656;2022-07-10T05:24:14;15.25;74.59
68257;DHT22;55069;51.568;4.656;2022-07-10T05:26:40;15.31;73.92
68257;DHT22;55069;51.568;4.656;2022-07-10T05:29:05;15.32;74.12
68257;DHT22;55069;51.568;4.656;2022-07-10T05:31:31;15.35;74.08
68257;DHT22;55069;51.568;4.656;2022-07-10T05:33:56;15.38;74.24
68257;DHT22;55069;51.568;4.656;2022-07-10T05:36:21;15.45;74.21
68257;DHT22;55069;51.568;4.656;2022-07-10T05:38:47;15.50;74.47
68257;DHT22;55069;51.568;4.656;2022-07-10T05:41:13;15.52;73.59
68257;DHT22;55069;51.568;4.656;2022-07-10T05:43:38;15.56;74.09
68257;DHT22;55069;51.568;4.656;2022-07-10T05:46:04;15.62;74.51
68257;DHT22;55069;51.568;4.656;2022-07-10T05:48:31;15.76;73.96
68257;DHT22;55069;51.568;4.656;2022-07-10T05:50:56;15.71;74.14
68257;DHT22;55069;51.568;4.656;2022-07-10T05:53:22;15.76;74.25
68257;DHT22;55069;51.568;4.656;2022-07-10T05:55:48;15.86;74.10
68257;DHT22;55069;51.568;4.656;2022-07-10T05:58:14;15.96;73.95
68257;DHT22;55069;51.568;4.656;2022-07-10T06:00:39;16.11;74.06
68257;DHT22;55069;51.568;4.656;2022-07-10T06:03:05;16.14;72.94
68257;DHT22;55069;51.568;4.656;2022-07-10T06:05:31;16.17;73.58
68257;DHT22;55069;51.568;4.656;2022-07-10T06:07:56;16.21;73.29
68257;DHT22;55069;51.568;4.656;2022-07-10T06:10:21;16.32;73.61
68257;DHT22;55069;51.568;4.656;2022-07-10T06:12:47;16.29;73.10
68257;DHT22;55069;51.568;4.656;2022-07-10T06:15:13;16.34;73.54
68257;DHT22;55069;51.568;4.656;2022-07-10T06:17:38;16.32;73.71
68257;DHT22;55069;51.568;4.656;2022-07-10T06:20:04;16.62;72.40
68257;DHT22;55069;51.568;4.656;2022-07-10T06:22:30;16.68;72.80
68257;DHT22;55069;51.568;4.656;2022-07-10T06:24:59;16.66;72.56
68257;DHT22;55069;51.568;4.656;2022-07-10T06:27:26;16.77;72.32
68257;DHT22;55069;51.568;4.656;2022-07-10T06:29:52;16.86;72.54
68257;DHT22;55069;51.568;4.656;2022-07-10T06:32:17;16.91;72.65
68257;DHT22;55069;51.568;4.656;2022-07-10T06:34:43;16.86;72.89
68257;DHT22;55069;51.568;4.656;2022-07-10T06:37:08;17.16;72.24
68257;DHT22;55069;51.568;4.656;2022-07-10T06:39:34;17.26;71.63
68257;DHT22;55069;51.568;4.656;2022-07-10T06:42:03;17.32;72.35
68257;DHT22;55069;51.568;4.656;2022-07-10T06:44:29;17.39;70.65
68257;DHT22;55069;51.568;4.656;2022-07-10T06:46:56;17.66;70.05
68257;DHT22;55069;51.568;4.656;2022-07-10T06:49:40;17.69;69.25
68257;DHT22;55069;51.568;4.656;2022-07-10T06:52:06;17.87;68.86
68257;DHT22;55069;51.568;4.656;2022-07-10T06:54:32;17.96;67.59
68257;DHT22;55069;51.568;4.656;2022-07-10T06:56:58;17.76;68.60
68257;DHT22;55069;51.568;4.656;2022-07-10T06:59:24;17.97;67.27
68257;DHT22;55069;51.568;4.656;2022-07-10T07:01:50;18.13;67.49
68257;DHT22;55069;51.568;4.656;2022-07-10T07:04:15;18.29;66.23
68257;DHT22;55069;51.568;4.656;2022-07-10T07:06:41;18.33;67.09
68257;DHT22;55069;51.568;4.656;2022-07-10T07:09:06;18.24;66.21
68257;DHT22;55069;51.568;4.656;2022-07-10T07:11:32;18.27;66.01
68257;DHT22;55069;51.568;4.656;2022-07-10T07:13:57;18.16;66.07
68257;DHT22;55069;51.568;4.656;2022-07-10T07:16:23;18.16;66.04
68257;DHT22;55069;51.568;4.656;2022-07-10T07:19:03;18.22;66.35
68257;DHT22;55069;51.568;4.656;2022-07-10T07:21:30;18.40;66.55
68257;DHT22;55069;51.568;4.656;2022-07-10T07:24:15;18.18;66.01
68257;DHT22;55069;51.568;4.656;2022-07-10T07:26:40;18.38;65.42
68257;DHT22;55069;51.568;4.656;2022-07-10T07:29:06;18.37;65.59
68257;DHT22;55069;51.568;4.656;2022-07-10T07:31:31;18.65;65.10
68257;DHT22;55069;51.568;4.656;2022-07-10T07:33:57;18.76;65.22
68257;DHT22;55069;51.568;4.656;2022-07-10T07:36:23;18.96;64.47
68257;DHT22;55069;51.568;4.656;2022-07-10T07:38:48;19.02;63.93
68257;DHT22;55069;51.568;4.656;2022-07-10T07:41:14;19.09;62.77
68257;DHT22;55069;51.568;4.656;2022-07-10T07:43:40;18.99;63.93
68257;DHT22;55069;51.568;4.656;2022-07-10T07:46:06;19.12;63.85
68257;DHT22;55069;51.568;4.656;2022-07-10T07:48:31;19.53;62.93
68257;DHT22;55069;51.568;4.656;2022-07-10T07:50:57;19.63;61.80
68257;DHT22;55069;51.568;4.656;2022-07-10T07:53:23;19.60;62.21
68257;DHT22;55069;51.568;4.656;2022-07-10T07:55:49;19.54;62.08
68257;DHT22;55069;51.568;4.656;2022-07-10T07:58:14;19.36;62.40
68257;DHT22;55069;51.568;4.656;2022-07-10T08:00:40;19.19;63.44
68257;DHT22;55069;51.568;4.656;2022-07-10T08:03:05;19.49;62.91
68257;DHT22;55069;51.568;4.656;2022-07-10T08:05:31;19.30;63.46
68257;DHT22;55069;51.568;4.656;2022-07-10T08:07:58;19.51;62.99
68257;DHT22;55069;51.568;4.656;2022-07-10T08:10:31;19.56;61.64
68257;DHT22;55069;51.568;4.656;2022-07-10T08:12:57;19.60;62.29
68257;DHT22;55069;51.568;4.656;2022-07-10T08:15:23;19.60;62.99
68257;DHT22;55069;51.568;4.656;2022-07-10T08:17:50;19.70;62.43
68257;DHT22;55069;51.568;4.656;2022-07-10T08:20:16;19.78;62.73
68257;DHT22;55069;51.568;4.656;2022-07-10T08:22:43;19.78;62.36
68257;DHT22;55069;51.568;4.656;2022-07-10T08:25:09;20.02;61.94
68257;DHT22;55069;51.568;4.656;2022-07-10T08:27:35;19.99;61.77
68257;DHT22;55069;51.568;4.656;2022-07-10T08:30:01;20.42;61.56
68257;DHT22;55069;51.568;4.656;2022-07-10T08:32:27;20.32;60.69
68257;DHT22;55069;51.568;4.656;2022-07-10T08:34:53;20.47;60.89
68257;DHT22;55069;51.568;4.656;2022-07-10T08:37:19;20.26;61.69
68257;DHT22;55069;51.568;4.656;2022-07-10T08:39:47;20.46;61.28
68257;DHT22;55069;51.568;4.656;2022-07-10T08:42:15;20.37;62.20
68257;DHT22;55069;51.568;4.656;2022-07-10T08:44:41;20.21;61.61
68257;DHT22;55069;51.568;4.656;2022-07-10T08:47:07;19.88;63.32
68257;DHT22;55069;51.568;4.656;2022-07-10T08:49:32;19.64;64.13
68257;DHT22;55069;51.568;4.656;2022-07-10T08:52:13;20.22;62.64
68257;DHT22;55069;51.568;4.656;2022-07-10T08:54:46;19.99;63.32
68257;DHT22;55069;51.568;4.656;2022-07-10T08:57:12;20.42;62.21
68257;DHT22;55069;51.568;4.656;2022-07-10T08:59:40;20.66;61.32
68257;DHT22;55069;51.568;4.656;2022-07-10T09:02:05;20.73;60.77
68257;DHT22;55069;51.568;4.656;2022-07-10T09:04:31;20.76;60.65
68257;DHT22;55069;51.568;4.656;2022-07-10T09:06:56;20.63;60.05
68257;DHT22;55069;51.568;4.656;2022-07-10T09:09:22;21.07;59.67
68257;DHT22;55069;51.568;4.656;2022-07-10T09:11:55;20.63;59.95
68257;DHT22;55069;51.568;4.656;2022-07-10T09:14:21;20.12;61.06
68257;DHT22;55069;51.568;4.656;2022-07-10T09:16:50;20.11;62.11
68257;DHT22;55069;51.568;4.656;2022-07-10T09:24:19;20.36;61.04
68257;DHT22;55069;51.568;4.656;2022-07-10T09:29:19;20.59;61.08
68257;DHT22;55069;51.568;4.656;2022-07-10T09:32:02;21.02;60.60
68257;DHT22;55069;51.568;4.656;2022-07-10T09:34:41;21.15;59.17
68257;DHT22;55069;51.568;4.656;2022-07-10T09:40:03;21.36;59.52
68257;DHT22;55069;51.568;4.656;2022-07-10T09:42:34;21.29;59.63
68257;DHT22;55069;51.568;4.656;2022-07-10T09:47:37;21.17;59.55
68257;DHT22;55069;51.568;4.656;2022-07-10T09:50:03;21.36;58.21
68257;DHT22;55069;51.568;4.656;2022-07-10T09:52:29;20.76;60.23
68257;DHT22;55069;51.568;4.656;2022-07-10T09:54:58;21.36;60.13
68257;DHT22;55069;51.568;4.656;2022-07-10T09:57:27;21.28;59.00
68257;DHT22;55069;51.568;4.656;2022-07-10T09:59:54;21.52;58.87
68257;DHT22;55069;51.568;4.656;2022-07-10T10:02:21;21.84;58.22
68257;DHT22;55069;51.568;4.656;2022-07-10T10:04:48;21.79;58.77
68257;DHT22;55069;51.568;4.656;2022-07-10T10:07:17;21.87;57.36
68257;DHT22;55069;51.568;4.656;2022-07-10T10:09:50;21.57;57.80
68257;DHT22;55069;51.568;4.656;2022-07-10T10:12:31;22.04;57.78
68257;DHT22;55069;51.568;4.656;2022-07-10T10:15:00;22.27;57.36
68257;DHT22;55069;51.568;4.656;2022-07-10T10:17:26;22.18;56.04
68257;DHT22;55069;51.568;4.656;2022-07-10T10:19:54;21.46;57.20
68257;DHT22;55069;51.568;4.656;2022-07-10T10:22:40;21.86;57.24
68257;DHT22;55069;51.568;4.656;2022-07-10T10:25:07;21.89;57.56
68257;DHT22;55069;51.568;4.656;2022-07-10T10:27:35;21.90;57.46
68257;DHT22;55069;51.568;4.656;2022-07-10T10:30:02;21.93;57.18
68257;DHT22;55069;51.568;4.656;2022-07-10T10:32:28;21.19;58.20
68257;DHT22;55069;51.568;4.656;2022-07-10T10:34:53;20.98;58.69
68257;DHT22;55069;51.568;4.656;2022-07-10T10:37:41;21.22;58.89
68257;DHT22;55069;51.568;4.656;2022-07-10T10:40:10;21.65;58.38
68257;DHT22;55069;51.568;4.656;2022-07-10T10:42:38;20.95;58.91
68257;DHT22;55069;51.568;4.656;2022-07-10T10:53:15;21.39;57.35
68257;DHT22;55069;51.568;4.656;2022-07-10T10:58:26;21.57;57.01
68257;DHT22;55069;51.568;4.656;2022-07-10T11:00:52;21.32;58.47
68257;DHT22;55069;51.568;4.656;2022-07-10T11:03:25;22.05;56.41
68257;DHT22;55069;51.568;4.656;2022-07-10T11:05:51;22.10;56.48
68257;DHT22;55069;51.568;4.656;2022-07-10T11:08:36;22.30;57.06
68257;DHT22;55069;51.568;4.656;2022-07-10T11:13:57;21.69;57.74
68257;DHT22;55069;51.568;4.656;2022-07-10T11:16:23;22.11;56.83
68257;DHT22;55069;51.568;4.656;2022-07-10T11:18:53;22.03;57.26
68257;DHT22;55069;51.568;4.656;2022-07-10T11:21:25;21.83;57.86
68257;DHT22;55069;51.568;4.656;2022-07-10T11:26:35;22.20;56.97
68257;DHT22;55069;51.568;4.656;2022-07-10T11:29:04;21.62;57.70
68257;DHT22;55069;51.568;4.656;2022-07-10T11:31:33;22.30;56.57
68257;DHT22;55069;51.568;4.656;2022-07-10T11:34:12;23.26;54.51
68257;DHT22;55069;51.568;4.656;2022-07-10T11:36:39;23.51;53.63
68257;DHT22;55069;51.568;4.656;2022-07-10T11:39:06;23.44;53.87
68257;DHT22;55069;51.568;4.656;2022-07-10T11:41:32;23.30;54.00
68257;DHT22;55069;51.568;4.656;2022-07-10T11:44:00;23.55;54.17
68257;DHT22;55069;51.568;4.656;2022-07-10T11:46:28;23.45;53.64
68257;DHT22;55069;51.568;4.656;2022-07-10T11:48:54;23.65;53.31
68257;DHT22;55069;51.568;4.656;2022-07-10T11:51:29;23.34;54.21
68257;DHT22;55069;51.568;4.656;2022-07-10T11:54:14;23.95;53.89
68257;DHT22;55069;51.568;4.656;2022-07-10T11:56:46;24.64;51.90
68257;DHT22;55069;51.568;4.656;2022-07-10T11:59:13;23.90;51.97
68257;DHT22;55069;51.568;4.656;2022-07-10T12:01:47;23.31;52.77
68257;DHT22;55069;51.568;4.656;2022-07-10T12:04:15;22.69;54.20
68257;DHT22;55069;51.568;4.656;2022-07-10T12:06:46;23.18;54.11
68257;DHT22;55069;51.568;4.656;2022-07-10T12:09:14;23.26;53.73
68257;DHT22;55069;51.568;4.656;2022-07-10T12:11:40;22.77;55.04
68257;DHT22;55069;51.568;4.656;2022-07-10T12:14:20;23.51;53.26
68257;DHT22;55069;51.568;4.656;2022-07-10T12:16:50;23.03;54.15
68257;DHT22;55069;51.568;4.656;2022-07-10T12:19:18;23.34;53.44
68257;DHT22;55069;51.568;4.656;2022-07-10T12:21:45;23.69;52.78
68257;DHT22;55069;51.568;4.656;2022-07-10T12:24:13;23.99;51.02
68257;DHT22;55069;51.568;4.656;2022-07-10T12:26:41;23.51;52.93
68257;DHT22;55069;51.568;4.656;2022-07-10T12:29:21;22.96;53.91
68257;DHT22;55069;51.568;4.656;2022-07-10T12:31:51;23.23;52.05
68257;DHT22;55069;51.568;4.656;2022-07-10T12:34:18;22.89;53.45
68257;DHT22;55069;51.568;4.656;2022-07-10T12:36:48;22.96;52.86
68257;DHT22;55069;51.568;4.656;2022-07-10T12:39:17;23.27;52.73
68257;DHT22;55069;51.568;4.656;2022-07-10T12:42:03;23.75;51.19
68257;DHT22;55069;51.568;4.656;2022-07-10T12:47:13;22.75;51.64
68257;DHT22;55069;51.568;4.656;2022-07-10T12:50:01;23.24;52.37
68257;DHT22;55069;51.568;4.656;2022-07-10T12:52:31;22.90;51.48
68257;DHT22;55069;51.568;4.656;2022-07-10T12:55:17;22.79;52.91
68257;DHT22;55069;51.568;4.656;2022-07-10T12:57:55;23.13;51.74
68257;DHT22;55069;51.568;4.656;2022-07-10T13:03:07;23.11;51.02
68257;DHT22;55069;51.568;4.656;2022-07-10T13:05:35;23.79;49.78
68257;DHT22;55069;51.568;4.656;2022-07-10T13:08:21;23.76;49.10
68257;DHT22;55069;51.568;4.656;2022-07-10T13:10:56;23.68;49.04
68257;DHT22;55069;51.568;4.656;2022-07-10T13:13:22;23.83;49.67
68257;DHT22;55069;51.568;4.656;2022-07-10T13:15:48;23.95;48.88
68257;DHT22;55069;51.568;4.656;2022-07-10T13:18:20;23.98;48.78
68257;DHT22;55069;51.568;4.656;2022-07-10T13:20:48;23.18;49.83
68257;DHT22;55069;51.568;4.656;2022-07-10T13:23:14;23.57;51.01
68257;DHT22;55069;51.568;4.656;2022-07-10T13:25:41;23.65;50.21
68257;DHT22;55069;51.568;4.656;2022-07-10T13:28:09;23.62;49.29
68257;DHT22;55069;51.568;4.656;2022-07-10T13:30:36;23.26;50.79
68257;DHT22;55069;51.568;4.656;2022-07-10T13:33:01;23.33;50.34
68257;DHT22;55069;51.568;4.656;2022-07-10T13:35:31;23.47;49.90
68257;DHT22;55069;51.568;4.656;2022-07-10T13:37:59;23.88;49.19
68257;DHT22;55069;51.568;4.656;2022-07-10T13:40:27;23.68;49.01
68257;DHT22;55069;51.568;4.656;2022-07-10T13:42:52;23.85;49.08
68257;DHT22;55069;51.568;4.656;2022-07-10T13:45:19;23.89;49.04
68257;DHT22;55069;51.568;4.656;2022-07-10T13:47:46;23.66;48.42
68257;DHT22;55069;51.568;4.656;2022-07-10T13:50:12;23.89;49.58
68257;DHT22;55069;51.568;4.656;2022-07-10T13:52:37;23.90;48.42
68257;DHT22;55069;51.568;4.656;2022-07-10T13:55:03;24.13;48.99
68257;DHT22;55069;51.568;4.656;2022-07-10T13:57:30;24.30;47.75
68257;DHT22;55069;51.568;4.656;2022-07-10T13:59:55;23.75;48.60
68257;DHT22;55069;51.568;4.656;2022-07-10T14:02:21;23.45;49.89
68257;DHT22;55069;51.568;4.656;2022-07-10T14:04:46;23.79;48.78
68257;DHT22;55069;51.568;4.656;2022-07-10T14:07:12;24.17;47.12
68257;DHT22;55069;51.568;4.656;2022-07-10T14:09:38;24.60;46.99
68257;DHT22;55069;51.568;4.656;2022-07-10T14:12:03;24.81;47.24
68257;DHT22;55069;51.568;4.656;2022-07-10T14:14:29;24.65;48.10
68257;DHT22;55069;51.568;4.656;2022-07-10T14:16:55;24.50;45.76
68257;DHT22;55069;51.568;4.656;2022-07-10T14:19:20;24.56;47.57
68257;DHT22;55069;51.568;4.656;2022-07-10T14:21:46;24.17;47.31
68257;DHT22;55069;51.568;4.656;2022-07-10T14:24:11;24.56;46.44
68257;DHT22;55069;51.568;4.656;2022-07-10T14:26:37;24.41;46.99
68257;DHT22;55069;51.568;4.656;2022-07-10T14:29:03;24.71;47.15
68257;DHT22;55069;51.568;4.656;2022-07-10T14:31:28;23.90;48.20
68257;DHT22;55069;51.568;4.656;2022-07-10T14:33:54;24.36;48.39
68257;DHT22;55069;51.568;4.656;2022-07-10T14:36:20;24.29;47.79
68257;DHT22;55069;51.568;4.656;2022-07-10T14:38:53;25.08;48.36
68257;DHT22;55069;51.568;4.656;2022-07-10T14:41:18;25.39;46.66
68257;DHT22;55069;51.568;4.656;2022-07-10T14:43:44;25.57;44.39
68257;DHT22;55069;51.568;4.656;2022-07-10T14:46:09;25.56;46.20
68257;DHT22;55069;51.568;4.656;2022-07-10T14:48:35;25.53;44.96
68257;DHT22;55069;51.568;4.656;2022-07-10T14:51:01;25.29;47.02
68257;DHT22;55069;51.568;4.656;2022-07-10T14:53:27;26.00;45.49
68257;DHT22;55069;51.568;4.656;2022-07-10T14:55:52;25.35;47.45
68257;DHT22;55069;51.568;4.656;2022-07-10T14:58:18;25.83;46.59
68257;DHT22;55069;51.568;4.656;2022-07-10T15:00:43;25.81;46.97
68257;DHT22;55069;51.568;4.656;2022-07-10T15:03:09;25.81;46.42
68257;DHT22;55069;51.568;4.656;2022-07-10T15:05:35;25.74;46.67
68257;DHT22;55069;51.568;4.656;2022-07-10T15:08:01;25.70;46.88
68257;DHT22;55069;51.568;4.656;2022-07-10T15:10:27;25.43;48.03
68257;DHT22;55069;51.568;4.656;2022-07-10T15:12:53;25.88;47.36
68257;DHT22;55069;51.568;4.656;2022-07-10T15:15:19;25.35;47.70
68257;DHT22;55069;51.568;4.656;2022-07-10T15:17:45;25.15;47.89
68257;DHT22;55069;51.568;4.656;2022-07-10T15:20:11;25.27;48.70
68257;DHT22;55069;51.568;4.656;2022-07-10T15:22:36;25.42;47.64
68257;DHT22;55069;51.568;4.656;2022-07-10T15:25:02;25.59;47.62
68257;DHT22;55069;51.568;4.656;2022-07-10T15:27:28;25.67;47.91
68257;DHT22;55069;51.568;4.656;2022-07-10T15:29:53;25.23;47.81
68257;DHT22;55069;51.568;4.656;2022-07-10T15:32:20;25.04;48.85
68257;DHT22;55069;51.568;4.656;2022-07-10T15:34:46;25.26;48.56
68257;DHT22;55069;51.568;4.656;2022-07-10T15:37:11;25.27;48.58
68257;DHT22;55069;51.568;4.656;2022-07-10T15:39:37;24.67;51.14
68257;DHT22;55069;51.568;4.656;2022-07-10T15:42:09;24.61;49.81
68257;DHT22;55069;51.568;4.656;2022-07-10T15:44:35;25.16;49.09
68257;DHT22;55069;51.568;4.656;2022-07-10T15:47:01;24.92;49.00
68257;DHT22;55069;51.568;4.656;2022-07-10T15:49:27;24.77;49.34
68257;DHT22;55069;51.568;4.656;2022-07-10T15:51:52;24.50;50.55
68257;DHT22;55069;51.568;4.656;2022-07-10T15:54:18;23.75;52.36
68257;DHT22;55069;51.568;4.656;2022-07-10T15:56:44;24.29;51.04
68257;DHT22;55069;51.568;4.656;2022-07-10T15:59:10;24.70;50.16
68257;DHT22;55069;51.568;4.656;2022-07-10T16:01:36;24.96;50.18
68257;DHT22;55069;51.568;4.656;2022-07-10T16:04:02;25.15;49.38